Portada
METAR-TAF:

METAR-TAF

Aeroports :

Aeroport de Berlín-Tegel

Berlín, Alemanya

latitud: 52-34N, longitud: 013-19E, altitud: 37 m

Observació

L'informe es va fer fa 37 minuts, a les 09:20 UTC
Vent 10 kt del Oest, variant entre Oest/Sud-Oest i Nord-Oest
Temperatura 6°C
Humitat 65%
Pressió 1024 hPa
Visibilitat 10 km o més
Núvols disperses a una alçada de 2900 ft

METAR: EDDT 190920Z 28010KT 250V320 9999 SCT029 06/M00 Q1024 NOSIG

Hora: 10:57 (09:57 UTC)

Pronòstic

L'informe es va fer fa 4 hores i 57 minuts, a les 05:00 UTC
Pronòstic vàlid del 19 a les 06 UTC al 20 a les 06 UTC
Vent 10 kt del Oest
Visibilitat 10 km o més
Núvols disperses a una alçada de 3000 ft
Evolucionant progressivament
l' 19 a les 15 UTC al 19 a les 18 UTC
Vent 5 kt del Oest/Sud-Oest

TAF: EDDT 190500Z 1906/2006 28010KT 9999 SCT030 BECMG 1915/1918 25005KT

Observacions i pronòstics meteorològics de més de 4000 aeroports (METAR i TAF).

Les estacions disponibles són els punts grocs i vermells al mapa.

Posi el ratolí al punt desitjat per veure el nom de l'estació.

Feu clic per veure les observacions i els pronòstics meteorològics.

Per canviar el mapa: feu clic els botons verds amb una creu de color negre per apropar; al botó verd amb un guió per allunyar la imatge; o en les fletxes verdes per a mapes adjacents.


METAR-TAF: